FXMM

Moshoeshoe I International Airport

Maseru, Lesotho
TAF FXMM 180400Z 1806/1906 02006KT CAVOK BECMG 1809/1811 03010KT 9999 FEW030 FM181200 30012KT //// SCT035 FM182000 36004KT //// FEW030
Issued Valid From Valid To
Jan-18 @ 04:00 UTC
(22 hours ago)
Jan-18 @ 06:00 UTC
(20 hours ago)
Jan-19 @ 06:00 UTC
(in 4 hours)
Expired Click to View Jan-18 @ 06:00 to Jan-18 @ 09:00
TAF FXMM 180400Z 1806/1906 02006KT CAVOK
Wind Visibility Clouds Conditions
20° at 6 knots 10,000+ meters
  • No significant clouds
Expired Click to View Jan-18 @ 09:00 to Jan-18 @ 12:00
BECMG 1809/1811 03010KT 9999 FEW030
Wind Visibility Clouds Conditions
30° at 10 knots 10,000+ meters
  • Few at 3,000' AGL
Expired Click to View Jan-18 @ 12:00 to Jan-18 @ 20:00
FM181200 30012KT //// SCT035
Wind Clouds
300° at 12 knots
  • Scattered at 3,500' AGL
From Jan-18 @ 20:00 to Jan-19 @ 06:00
FM182000 36004KT //// FEW030
Wind Clouds
360° at 4 knots
  • Few at 3,000' AGL
TAF FXMM 180400Z 1806/1906 02006KT CAVOK BECMG 1809/1811 03010KT 9999 FEW030 FM181200 30012KT //// SCT035 FM182000 36004KT //// FEW030
Issued Jan-18 @ 04:00 UTC
(22 hours ago)
Valid From Jan-18 @ 06:00 UTC
(20 hours ago)
Valid To Jan-19 @ 06:00 UTC
(in 4 hours)
Jan-18 @ 06:00 - Jan-18 @ 09:00
Wind Visibility
20° at 6 knots 10,000+ meters
Clouds
  • No significant clouds
Conditions
Jan-18 @ 09:00 - Jan-18 @ 12:00
Wind Visibility
30° at 10 knots 10,000+ meters
Clouds
  • Few at 3,000' AGL
Conditions
Jan-18 @ 12:00 - Jan-18 @ 20:00
Wind
300° at 12 knots
Clouds
  • Scattered at 3,500' AGL
From Jan-18 @ 20:00 - Jan-19 @ 06:00
Wind
360° at 4 knots
Clouds
  • Few at 3,000' AGL